Time;durP1;ratioP1;P1;durP2;ratioP2;P2;SDS_P1;SDS_P2;PMS_P1;PMS_P2;Temp;Humidity;BMP_temperature;BMP_pressure;BME280_temperature;BME280_humidity;BME280_pressure;Samples;Min_cycle;Max_cycle;Signal;HPM_P1;HPM_P2
2021/10/02 16:03:08;;;;;;;22.10;11.70;;;;;;;15.51;60.49;99436.95;113466;1173;108860;-74
2021/10/02 16:05:48;;;;;;;22.30;11.20;;;;;;;15.45;60.61;99442.24;112965;1196;97685;-75
2021/10/02 16:08:20;;;;;;;24.20;11.00;;;;;;;15.40;60.71;99445.90;113060;1195;97700;-78
2021/10/02 16:10:48;;;;;;;24.60;11.60;;;;;;;15.36;60.78;99447.30;113161;1195;111122;-76
2021/10/02 16:13:22;;;;;;;24.10;11.40;;;;;;;15.33;60.69;99449.36;113222;1195;97684;-75
2021/10/02 16:15:50;;;;;;;25.40;13.00;;;;;;;15.28;60.87;99446.72;113296;1195;107540;-75
2021/10/02 16:18:21;;;;;;;26.70;12.70;;;;;;;15.24;60.79;99452.45;113008;1196;97660;-76
2021/10/02 16:20:51;;;;;;;28.50;14.60;;;;;;;15.15;60.86;99453.53;113188;1194;97688;-74
2021/10/02 16:23:19;;;;;;;25.70;13.70;;;;;;;15.06;61.14;99453.76;113222;1194;111166;-75
2021/10/02 16:25:47;;;;;;;26.10;13.40;;;;;;;14.97;61.15;99453.33;112956;1195;95824;-75
2021/10/02 16:28:15;;;;;;;27.50;14.40;;;;;;;14.87;61.25;99458.42;113127;1195;107537;-76
2021/10/02 16:30:43;;;;;;;28.80;15.50;;;;;;;14.80;61.33;99458.16;113115;1195;97564;-73
2021/10/02 16:33:11;;;;;;;27.70;16.20;;;;;;;14.72;61.44;99461.96;113070;1195;97572;-74
2021/10/02 16:35:43;;;;;;;27.80;14.40;;;;;;;14.66;61.55;99464.28;113349;1194;111183;-74
2021/10/02 16:38:13;;;;;;;28.20;13.90;;;;;;;14.59;61.76;99461.06;113358;1195;97585;-74
2021/10/02 16:40:43;;;;;;;31.00;14.80;;;;;;;14.53;61.78;99463.02;113293;1195;107349;-74
2021/10/02 16:43:14;;;;;;;31.00;16.80;;;;;;;14.46;61.88;99457.66;113341;1194;97625;-75
2021/10/02 16:45:44;;;;;;;30.60;17.70;;;;;;;14.42;61.96;99457.69;113375;1194;97605;-74
2021/10/02 16:48:12;;;;;;;32.30;17.00;;;;;;;14.36;61.95;99458.52;113315;1195;111128;-76
2021/10/02 16:50:46;;;;;;;27.20;15.40;;;;;;;14.30;62.07;99461.31;113298;1193;96544;-73
2021/10/02 16:53:15;;;;;;;30.60;15.40;;;;;;;14.24;62.15;99463.21;113338;1193;107482;-75
2021/10/02 16:55:44;;;;;;;26.90;14.80;;;;;;;14.20;62.27;99470.70;113404;1193;98074;-74
2021/10/02 16:58:14;;;;;;;30.30;15.80;;;;;;;14.18;62.35;99469.42;113316;1193;97585;-76
2021/10/02 17:00:42;;;;;;;26.80;14.30;;;;;;;14.14;62.49;99468.10;113186;1193;110151;-74
2021/10/02 17:03:11;;;;;;;33.10;15.60;;;;;;;14.11;62.68;99470.14;113398;1193;97697;-74
2021/10/02 17:05:38;;;;;;;26.60;15.10;;;;;;;14.06;62.91;99473.44;113196;1195;107490;-74
2021/10/02 17:08:06;;;;;;;141.10;85.30;;;;;;;14.00;62.99;99479.98;113206;1195;97712;-76
2021/10/02 17:10:34;;;;;;;108.70;68.80;;;;;;;13.93;62.96;99477.80;113228;1194;97656;-74
2021/10/02 17:13:03;;;;;;;76.70;50.90;;;;;;;13.90;63.13;99475.59;113318;1193;111301;-76
2021/10/02 17:15:31;;;;;;;67.20;41.90;;;;;;;13.84;63.21;99472.52;113375;1194;97695;-75
2021/10/02 17:18:01;;;;;;;38.40;22.90;;;;;;;13.78;63.25;99469.06;113292;1194;108501;-74
2021/10/02 17:20:28;;;;;;;34.00;19.40;;;;;;;13.73;63.41;99471.73;113234;1195;97588;-74
2021/10/02 17:22:56;;;;;;;32.50;20.70;;;;;;;13.68;63.41;99469.98;113302;1194;97652;-74
2021/10/02 17:25:24;;;;;;;33.40;17.80;;;;;;;13.64;63.63;99470.27;113262;1193;111144;-72
2021/10/02 17:27:54;;;;;;;35.30;18.40;;;;;;;13.59;63.59;99471.42;113266;1197;97530;-74
2021/10/02 17:30:22;;;;;;;29.10;15.60;;;;;;;13.55;63.77;99471.91;113213;1195;107353;-73
2021/10/02 17:32:51;;;;;;;29.00;15.10;;;;;;;13.50;63.81;99473.92;113069;1195;97733;-73
2021/10/02 17:35:23;;;;;;;28.30;15.00;;;;;;;13.45;63.93;99476.95;113353;1194;97588;-74
2021/10/02 17:37:51;;;;;;;28.00;14.80;;;;;;;13.43;64.09;99479.13;113107;1195;111204;-72
2021/10/02 17:40:24;;;;;;;29.40;14.50;;;;;;;13.41;64.31;99477.09;113108;1195;96095;-74
2021/10/02 17:42:53;;;;;;;29.80;15.10;;;;;;;13.38;64.36;99469.30;113071;1194;106154;-75
2021/10/02 17:45:25;;;;;;;28.60;14.30;;;;;;;13.34;64.47;99466.89;113095;1193;98344;-76
2021/10/02 17:48:01;;;;;;;31.30;15.60;;;;;;;13.32;64.46;99467.63;113120;1193;98145;-74
2021/10/02 17:50:35;;;;;;;29.20;13.70;;;;;;;13.29;64.62;99466.04;113026;1195;113530;-75
2021/10/02 17:53:07;;;;;;;;;;;;;;;13.29;64.73;99473.18;112999;1194;97551;-75
2021/10/02 17:55:36;;;;;;;24.40;11.50;;;;;;;13.27;64.89;99464.80;113100;1195;108079;-76
2021/10/02 17:58:04;;;;;;;23.80;13.30;;;;;;;13.27;64.83;99464.05;113150;1194;97642;-74
2021/10/02 18:00:36;;;;;;;26.80;13.80;;;;;;;13.28;65.06;99468.66;113172;1193;96602;-73
2021/10/02 18:03:08;;;;;;;27.00;13.10;;;;;;;13.27;65.09;99465.33;113024;1194;111177;-74
2021/10/02 18:05:37;;;;;;;25.90;12.90;;;;;;;13.27;65.14;99460.00;113076;1195;97636;-73
2021/10/02 18:08:06;;;;;;;25.60;12.70;;;;;;;13.26;65.21;99464.48;113077;1194;106752;-74
2021/10/02 18:10:36;;;;;;;25.10;13.60;;;;;;;13.26;65.19;99463.78;113224;1195;97667;-74
2021/10/02 18:13:05;;;;;;;23.70;13.20;;;;;;;13.25;65.23;99464.54;113234;1194;95137;-73
2021/10/02 18:15:33;;;;;;;24.60;11.90;;;;;;;13.26;65.30;99464.50;113215;1194;111155;-72
2021/10/02 18:18:04;;;;;;;24.60;12.00;;;;;;;13.25;65.38;99467.73;113189;1195;97634;-74
2021/10/02 18:20:35;;;;;;;25.90;13.10;;;;;;;13.23;65.27;99468.80;113127;1193;107315;-74
2021/10/02 18:23:04;;;;;;;24.80;12.40;;;;;;;13.22;65.28;99473.72;113168;1193;98135;-73
2021/10/02 18:25:42;;;;;;;22.80;12.00;;;;;;;13.22;65.37;99474.59;113266;1194;97622;-74
2021/10/02 18:28:10;;;;;;;24.00;12.40;;;;;;;13.21;65.39;99477.10;113240;1194;110854;-75
2021/10/02 18:30:41;;;;;;;27.30;13.50;;;;;;;13.21;65.41;99476.77;113249;1194;96907;-73
2021/10/02 18:33:13;;;;;;;22.90;12.30;;;;;;;13.19;65.50;99476.80;113174;1195;108372;-74
2021/10/02 18:35:42;;;;;;;23.50;12.60;;;;;;;13.16;65.65;99474.91;113128;1194;97622;-75
2021/10/02 18:38:13;;;;;;;24.30;12.80;;;;;;;13.11;65.63;99472.59;113287;1195;98321;-74
2021/10/02 18:40:42;;;;;;;25.60;12.50;;;;;;;13.06;65.75;99464.42;113006;1195;111158;-73
2021/10/02 18:43:15;;;;;;;25.20;13.40;;;;;;;13.01;65.96;99461.62;113038;1195;97634;-75
2021/10/02 18:45:44;;;;;;;26.20;13.50;;;;;;;12.93;65.94;99465.55;113315;1194;107679;-74
2021/10/02 18:48:13;;;;;;;28.80;13.30;;;;;;;12.88;65.93;99470.94;112960;1195;97512;-75
2021/10/02 18:50:46;;;;;;;25.20;12.90;;;;;;;12.86;65.97;99476.08;113029;1195;97622;-74
2021/10/02 18:53:14;;;;;;;24.60;13.00;;;;;;;12.82;65.89;99471.58;113162;1194;110693;-74
2021/10/02 18:55:42;;;;;;;26.30;13.30;;;;;;;12.78;65.98;99471.34;113109;1194;95741;-74
2021/10/02 18:58:16;;;;;;;25.50;12.40;;;;;;;12.75;66.13;99471.93;113078;1195;108480;-75
2021/10/02 19:00:45;;;;;;;26.70;13.50;;;;;;;12.72;66.10;99472.34;113238;1193;97526;-74
2021/10/02 19:03:16;;;;;;;26.20;13.10;;;;;;;12.68;66.19;99470.98;113289;1193;96579;-75
2021/10/02 19:05:44;;;;;;;25.20;12.90;;;;;;;12.64;66.11;99465.92;113316;1194;111155;-75
2021/10/02 19:08:12;;;;;;;25.40;13.50;;;;;;;12.62;66.18;99460.98;113151;1195;97512;-74
2021/10/02 19:10:40;;;;;;;27.10;14.30;;;;;;;12.60;66.25;99461.30;113139;1195;106074;-73
2021/10/02 19:13:15;;;;;;;25.70;12.00;;;;;;;12.59;66.28;99458.69;113235;1194;97523;-74
2021/10/02 19:15:44;;;;;;;23.20;11.70;;;;;;;12.58;66.26;99455.38;113255;1194;97638;-73
2021/10/02 19:18:11;;;;;;;27.00;13.20;;;;;;;12.57;66.24;99452.80;113213;1193;111770;-75
2021/10/02 19:20:46;;;;;;;27.60;12.90;;;;;;;12.56;66.46;99453.27;113316;1193;97580;-74
2021/10/02 19:23:16;;;;;;;25.20;13.30;;;;;;;12.52;66.49;99451.40;113297;1195;107513;-72
2021/10/02 19:25:44;;;;;;;25.50;13.30;;;;;;;12.47;66.52;99450.13;113198;1193;97580;-75
2021/10/02 19:28:12;;;;;;;26.50;13.30;;;;;;;12.42;66.69;99442.86;113209;1194;97692;-75
2021/10/02 19:30:40;;;;;;;25.00;13.80;;;;;;;12.38;66.80;99438.92;113175;1194;111162;-73
2021/10/02 19:33:08;;;;;;;26.10;13.30;;;;;;;12.32;66.72;99438.25;113205;1193;96189;-75
2021/10/02 19:35:36;;;;;;;29.50;14.80;;;;;;;12.29;66.70;99444.20;113240;1195;107523;-74
2021/10/02 19:38:03;;;;;;;24.90;13.40;;;;;;;12.26;66.75;99448.98;113124;1195;98448;-73
2021/10/02 19:40:31;;;;;;;27.10;13.90;;;;;;;12.24;66.85;99451.65;113241;1193;97577;-72
2021/10/02 19:42:59;;;;;;;24.80;13.60;;;;;;;12.23;66.87;99455.33;113299;1194;111178;-74
2021/10/02 19:45:31;;;;;;;24.80;13.30;;;;;;;12.21;66.92;99457.70;113344;1194;97555;-74
2021/10/02 19:47:59;;;;;;;25.70;13.30;;;;;;;12.22;66.92;99456.27;113086;1194;107551;-76
2021/10/02 19:50:27;;;;;;;28.10;14.00;;;;;;;12.21;66.91;99453.80;113070;1194;97680;-75
2021/10/02 19:52:55;;;;;;;25.10;12.70;;;;;;;12.20;66.91;99457.28;113201;1194;97655;-75
2021/10/02 19:55:23;;;;;;;29.30;13.10;;;;;;;12.19;66.97;99460.36;113220;1195;112725;-74
2021/10/02 19:57:52;;;;;;;28.70;16.40;;;;;;;12.19;67.08;99456.48;113115;1195;97659;-74
2021/10/02 20:00:20;;;;;;;28.10;12.20;;;;;;;12.16;67.25;99456.20;113189;1195;107592;-72
2021/10/02 20:02:49;;;;;;;26.30;13.30;;;;;;;12.12;67.12;99455.19;113187;1195;97740;-75
2021/10/02 20:05:17;;;;;;;27.70;13.10;;;;;;;12.08;67.22;99452.84;113220;1194;96138;-74
2021/10/02 20:07:45;;;;;;;24.30;11.80;;;;;;;12.04;67.21;99450.39;113239;1194;111177;-74
2021/10/02 20:10:14;;;;;;;25.40;13.30;;;;;;;12.02;67.66;99446.67;113192;1195;97624;-74
2021/10/02 20:12:43;;;;;;;23.40;12.60;;;;;;;11.96;67.87;99444.40;113153;1195;107653;-70
2021/10/02 20:15:11;;;;;;;21.20;11.50;;;;;;;11.90;67.96;99442.17;113264;1196;97673;-74
2021/10/02 20:17:40;;;;;;;26.30;12.10;;;;;;;11.85;68.12;99438.94;113076;1195;97594;-74
2021/10/02 20:20:08;;;;;;;23.00;12.20;;;;;;;11.82;68.25;99441.52;113137;1195;111298;-75
2021/10/02 20:22:37;;;;;;;23.80;12.00;;;;;;;11.78;68.47;99439.83;113098;1195;97567;-75
2021/10/02 20:25:08;;;;;;;22.50;11.70;;;;;;;11.77;68.87;99435.98;113213;1195;108200;-73
2021/10/02 20:27:37;;;;;;;27.20;11.80;;;;;;;11.72;68.91;99430.48;113112;1195;97550;-74
2021/10/02 20:30:08;;;;;;;24.90;11.80;;;;;;;11.68;69.27;99422.94;113124;1195;97746;-74
2021/10/02 20:32:37;;;;;;;22.50;11.30;;;;;;;11.65;69.35;99415.55;113101;1195;111696;-72
2021/10/02 20:35:08;;;;;;;23.20;10.50;;;;;;;11.62;69.43;99416.08;113084;1195;97649;-75
2021/10/02 20:37:38;;;;;;;27.60;12.80;;;;;;;11.59;69.47;99421.97;113198;1194;107564;-73
2021/10/02 20:40:09;;;;;;;27.80;12.70;;;;;;;11.57;69.46;99426.92;113399;1195;97622;-73
2021/10/02 20:42:39;;;;;;;23.90;11.60;;;;;;;11.56;69.35;99428.41;113191;1195;97670;-73
2021/10/02 20:45:09;;;;;;;22.20;12.00;;;;;;;11.57;69.65;99425.52;113203;1195;111192;-72
2021/10/02 20:47:40;;;;;;;22.40;10.90;;;;;;;11.56;69.72;99420.94;113130;1196;97688;-74
2021/10/02 20:50:12;;;;;;;26.90;13.70;;;;;;;11.55;69.96;99420.33;113163;1195;107532;-74
2021/10/02 20:52:42;;;;;;;21.60;12.00;;;;;;;11.52;69.73;99422.13;113316;1195;97614;-73
2021/10/02 20:55:12;;;;;;;23.90;12.10;;;;;;;11.51;69.82;99422.89;113136;1195;96483;-73
2021/10/02 20:57:42;;;;;;;26.40;12.90;;;;;;;11.50;69.98;99425.45;113196;1195;111164;-73
2021/10/02 21:04:08;;;;;;;22.70;11.80;;;;;;;11.44;69.86;99432.44;113326;1194;111028;-73
2021/10/02 21:06:38;;;;;;;24.80;12.00;;;;;;;11.43;69.84;99438.36;113254;1195;97713;-73
2021/10/02 21:09:06;;;;;;;26.20;12.70;;;;;;;11.44;69.86;99433.67;113077;1195;97589;-76
2021/10/02 21:11:41;;;;;;;24.50;12.50;;;;;;;11.44;69.91;99428.89;113113;1195;111186;-74
2021/10/02 21:14:09;;;;;;;;;;;;;;;11.44;70.14;99424.27;113193;1195;97763;-71
2021/10/02 21:16:39;;;;;;;24.70;12.40;;;;;;;11.40;70.36;99420.30;113142;1194;107519;-74
2021/10/02 21:19:08;;;;;;;25.10;11.40;;;;;;;11.34;70.42;99417.69;113068;1197;97878;-77
2021/10/02 21:21:36;;;;;;;22.70;10.60;;;;;;;11.30;70.41;99421.36;113177;1195;97555;-76
2021/10/02 21:24:04;;;;;;;25.90;12.40;;;;;;;11.27;70.52;99421.90;113262;1194;111243;-76
2021/10/02 21:26:35;;;;;;;27.70;11.70;;;;;;;11.25;70.59;99421.67;113258;1194;97565;-76
2021/10/02 21:29:05;;;;;;;25.10;13.20;;;;;;;11.24;70.75;99417.55;113227;1195;107582;-76
2021/10/02 21:31:37;;;;;;;24.50;11.90;;;;;;;11.19;71.08;99416.66;113090;1195;97625;-76
2021/10/02 21:34:05;;;;;;;28.20;13.30;;;;;;;11.11;71.28;99412.16;113294;1195;97539;-75
2021/10/02 21:36:36;;;;;;;23.00;11.40;;;;;;;11.04;71.26;99407.32;113087;1195;111179;-74
2021/10/02 21:39:06;;;;;;;25.40;11.50;;;;;;;11.00;71.71;99402.86;113329;1195;97461;-74
2021/10/02 21:41:34;;;;;;;22.10;11.70;;;;;;;10.93;71.98;99395.88;113316;1195;108254;-75
2021/10/02 21:44:04;;;;;;;23.60;12.10;;;;;;;10.83;72.07;99395.98;113165;1194;97688;-76
2021/10/02 21:46:32;;;;;;;26.10;14.30;;;;;;;10.79;72.26;99399.70;113146;1194;97558;-74
2021/10/02 21:49:02;;;;;;;22.70;12.80;;;;;;;10.75;72.24;99401.87;113424;1195;109335;-74
2021/10/02 21:51:33;;;;;;;24.50;12.80;;;;;;;10.73;72.48;99400.44;113391;1194;97540;-74
2021/10/02 21:54:03;;;;;;;25.80;13.50;;;;;;;10.70;72.41;99390.52;113180;1195;108332;-75
2021/10/02 21:56:33;;;;;;;28.50;14.40;;;;;;;10.65;72.34;99389.74;113210;1195;97108;-73
2021/10/02 21:59:04;;;;;;;27.80;14.70;;;;;;;10.62;72.27;99389.99;113448;1193;97646;-77
2021/10/02 22:01:39;;;;;;;24.70;13.80;;;;;;;10.59;72.18;99391.05;113427;1193;111189;-75
2021/10/02 22:04:16;;;;;;;26.80;13.50;;;;;;;10.57;71.96;99391.20;113380;1194;97741;-76
2021/10/02 22:06:47;;;;;;;26.00;13.20;;;;;;;10.57;72.06;99390.52;113441;1196;107388;-75
2021/10/02 22:09:19;;;;;;;23.90;12.70;;;;;;;10.55;72.15;99388.28;113359;1187;97685;-73
2021/10/02 22:11:51;;;;;;;25.70;13.30;;;;;;;10.54;72.23;99390.17;113350;1193;95145;-74
2021/10/02 22:14:21;;;;;;;24.90;13.00;;;;;;;10.52;72.24;99387.08;113343;1195;110727;-74
2021/10/02 22:16:51;;;;;;;25.30;11.80;;;;;;;10.50;72.43;99383.52;113434;1195;94941;-74
2021/10/02 22:19:25;;;;;;;24.10;12.50;;;;;;;10.48;72.79;99379.89;113167;1195;107548;-73
2021/10/02 22:21:54;;;;;;;23.70;11.90;;;;;;;10.46;73.32;99375.98;113095;1196;97582;-74
2021/10/02 22:24:24;;;;;;;26.70;13.90;;;;;;;10.45;73.72;99370.05;113346;1194;97683;-72
2021/10/02 22:26:56;;;;;;;25.00;12.50;;;;;;;10.42;73.83;99372.34;113289;1194;111076;-73
2021/10/02 22:29:29;;;;;;;21.80;10.80;;;;;;;10.40;73.90;99374.80;113370;1195;97473;-73
2021/10/02 22:31:59;;;;;;;22.30;11.60;;;;;;;10.39;74.07;99379.80;113386;1193;107533;-73
2021/10/02 22:34:30;;;;;;;26.70;13.60;;;;;;;10.40;74.42;99383.83;113423;1193;95038;-71
2021/10/02 22:37:00;;;;;;;24.80;11.70;;;;;;;10.38;74.36;99387.45;113172;1197;97564;-74
2021/10/02 22:39:28;;;;;;;24.60;13.40;;;;;;;10.39;74.56;99389.73;113300;1195;111101;-73
2021/10/02 22:41:57;;;;;;;24.60;12.70;;;;;;;10.36;74.44;99389.73;113360;1194;96399;-72
2021/10/02 22:44:30;;;;;;;24.40;12.00;;;;;;;10.34;74.56;99392.16;113384;1194;107474;-73
2021/10/02 22:47:03;;;;;;;25.80;12.10;;;;;;;10.33;74.61;99390.96;113169;1196;97596;-73
2021/10/02 22:49:35;;;;;;;22.20;11.60;;;;;;;10.33;74.53;99396.70;113380;1194;97602;-74
2021/10/02 22:52:04;;;;;;;27.40;12.30;;;;;;;10.32;74.88;99392.09;113200;1195;110992;-74
2021/10/02 22:54:32;;;;;;;22.60;12.10;;;;;;;10.32;74.96;99387.16;113342;1195;97536;-74
2021/10/02 22:57:03;;;;;;;22.90;12.20;;;;;;;10.31;75.14;99387.05;113152;1195;106574;-74
2021/10/02 22:59:31;;;;;;;24.40;12.20;;;;;;;10.28;75.19;99386.84;113150;1195;97637;-75
2021/10/02 23:01:58;;;;;;;23.10;11.70;;;;;;;10.27;75.11;99390.09;113142;1195;97992;-75
2021/10/02 23:04:30;;;;;;;27.10;12.30;;;;;;;10.28;75.09;99390.23;113269;1195;111277;-73
2021/10/02 23:07:00;;;;;;;22.70;11.00;;;;;;;10.29;75.12;99396.20;113419;1195;98095;-74
2021/10/02 23:09:28;;;;;;;24.70;11.60;;;;;;;10.31;75.18;99394.33;113137;1195;107195;-73
2021/10/02 23:11:55;;;;;;;24.70;12.30;;;;;;;10.31;75.16;99394.46;113413;1193;97576;-74
2021/10/02 23:14:25;;;;;;;23.40;12.20;;;;;;;10.33;75.39;99394.88;113447;1194;97670;-75
2021/10/02 23:17:04;;;;;;;23.70;11.60;;;;;;;10.34;75.49;99398.22;113369;1186;111954;-74
2021/10/02 23:19:37;;;;;;;22.80;10.80;;;;;;;10.33;75.70;99396.64;113465;1193;97559;-75
2021/10/02 23:22:11;;;;;;;21.80;11.20;;;;;;;10.32;75.73;99394.59;113414;1195;107392;-75
2021/10/02 23:24:48;;;;;;;22.30;11.30;;;;;;;10.31;75.70;99395.89;113166;1195;97575;-75
2021/10/02 23:27:19;;;;;;;22.20;11.20;;;;;;;10.30;75.55;99394.76;113409;1194;97566;-76
2021/10/02 23:29:53;;;;;;;22.00;11.50;;;;;;;10.29;75.72;99396.93;113348;1195;111196;-75
2021/10/02 23:32:24;;;;;;;23.40;11.90;;;;;;;10.26;75.84;99400.80;113126;1195;97663;-74
2021/10/02 23:34:54;;;;;;;21.20;10.60;;;;;;;10.24;75.85;99400.78;113185;1195;107562;-76
2021/10/02 23:37:24;;;;;;;20.60;10.30;;;;;;;10.22;75.93;99401.09;113412;1195;97647;-75
2021/10/02 23:39:51;;;;;;;22.00;11.00;;;;;;;10.20;76.06;99403.38;113430;1193;97656;-76
2021/10/02 23:42:19;;;;;;;21.60;10.60;;;;;;;10.16;76.11;99403.63;113212;1195;111188;-75
2021/10/02 23:44:49;;;;;;;23.30;11.00;;;;;;;10.12;76.31;99402.42;113375;1196;95789;-77
2021/10/02 23:47:17;;;;;;;22.50;11.80;;;;;;;10.09;76.26;99401.21;113171;1194;109352;-74
2021/10/02 23:49:47;;;;;;;21.00;10.70;;;;;;;10.07;76.46;99399.02;113153;1195;97543;-75
2021/10/02 23:52:17;;;;;;;22.30;11.00;;;;;;;10.06;76.72;99395.38;113405;1194;97659;-77
2021/10/02 23:54:50;;;;;;;21.70;11.40;;;;;;;10.02;76.72;99395.12;113422;1195;111199;-76
2021/10/02 23:57:32;;;;;;;23.70;11.50;;;;;;;10.00;76.83;99394.55;113226;1195;97660;-78
